sensor_id;sensor_type;location;lat;lon;timestamp;temperature;humidity
31046;DHT22;17711;54.018;9.300;2022-08-21T00:02:22;14.80;99.90
31046;DHT22;17711;54.018;9.300;2022-08-21T00:04:51;14.80;99.90
31046;DHT22;17711;54.018;9.300;2022-08-21T00:07:24;14.70;99.90
31046;DHT22;17711;54.018;9.300;2022-08-21T00:09:53;14.60;99.90
31046;DHT22;17711;54.018;9.300;2022-08-21T00:12:22;14.60;99.90
31046;DHT22;17711;54.018;9.300;2022-08-21T00:14:51;14.60;99.90
31046;DHT22;17711;54.018;9.300;2022-08-21T00:17:25;14.60;99.90
31046;DHT22;17711;54.018;9.300;2022-08-21T00:19:54;14.50;99.90
31046;DHT22;17711;54.018;9.300;2022-08-21T00:22:23;14.50;99.90
31046;DHT22;17711;54.018;9.300;2022-08-21T00:24:51;14.40;99.90
31046;DHT22;17711;54.018;9.300;2022-08-21T00:27:20;14.40;99.90
31046;DHT22;17711;54.018;9.300;2022-08-21T00:29:49;14.40;99.90
31046;DHT22;17711;54.018;9.300;2022-08-21T00:32:20;14.40;99.90
31046;DHT22;17711;54.018;9.300;2022-08-21T00:34:51;14.40;99.90
31046;DHT22;17711;54.018;9.300;2022-08-21T00:37:20;14.40;99.90
31046;DHT22;17711;54.018;9.300;2022-08-21T00:39:49;14.40;99.90
31046;DHT22;17711;54.018;9.300;2022-08-21T00:42:18;14.40;99.90
31046;DHT22;17711;54.018;9.300;2022-08-21T00:44:48;14.40;99.90
31046;DHT22;17711;54.018;9.300;2022-08-21T00:47:19;14.40;99.90
31046;DHT22;17711;54.018;9.300;2022-08-21T00:49:48;14.40;99.90
31046;DHT22;17711;54.018;9.300;2022-08-21T00:52:22;14.40;99.90
31046;DHT22;17711;54.018;9.300;2022-08-21T00:54:52;14.30;99.90
31046;DHT22;17711;54.018;9.300;2022-08-21T00:57:27;14.30;99.90
31046;DHT22;17711;54.018;9.300;2022-08-21T00:59:59;14.30;99.90
31046;DHT22;17711;54.018;9.300;2022-08-21T01:02:28;14.20;99.90
31046;DHT22;17711;54.018;9.300;2022-08-21T01:04:57;14.20;99.90
31046;DHT22;17711;54.018;9.300;2022-08-21T01:07:27;14.20;99.90
31046;DHT22;17711;54.018;9.300;2022-08-21T01:09:56;14.20;99.90
31046;DHT22;17711;54.018;9.300;2022-08-21T01:12:25;14.20;99.90
31046;DHT22;17711;54.018;9.300;2022-08-21T01:14:54;14.10;99.90
31046;DHT22;17711;54.018;9.300;2022-08-21T01:17:23;14.10;99.90
31046;DHT22;17711;54.018;9.300;2022-08-21T01:19:52;14.00;99.90
31046;DHT22;17711;54.018;9.300;2022-08-21T01:22:22;14.00;99.90
31046;DHT22;17711;54.018;9.300;2022-08-21T01:24:51;13.90;99.90
31046;DHT22;17711;54.018;9.300;2022-08-21T01:27:20;13.90;99.90
31046;DHT22;17711;54.018;9.300;2022-08-21T01:29:52;13.90;99.90
31046;DHT22;17711;54.018;9.300;2022-08-21T01:32:24;13.90;99.90
31046;DHT22;17711;54.018;9.300;2022-08-21T01:34:53;14.00;99.90
31046;DHT22;17711;54.018;9.300;2022-08-21T01:37:23;14.00;99.90
31046;DHT22;17711;54.018;9.300;2022-08-21T01:39:52;14.00;99.90
31046;DHT22;17711;54.018;9.300;2022-08-21T01:42:21;13.90;99.90
31046;DHT22;17711;54.018;9.300;2022-08-21T01:44:50;13.90;99.90
31046;DHT22;17711;54.018;9.300;2022-08-21T01:47:22;13.80;99.90
31046;DHT22;17711;54.018;9.300;2022-08-21T01:49:51;13.60;99.90
31046;DHT22;17711;54.018;9.300;2022-08-21T01:52:20;13.50;99.90
31046;DHT22;17711;54.018;9.300;2022-08-21T01:54:50;13.30;99.90
31046;DHT22;17711;54.018;9.300;2022-08-21T01:57:21;13.20;99.90
31046;DHT22;17711;54.018;9.300;2022-08-21T01:59:52;13.20;99.90
31046;DHT22;17711;54.018;9.300;2022-08-21T02:02:21;13.10;99.90
31046;DHT22;17711;54.018;9.300;2022-08-21T02:04:50;13.10;99.90
31046;DHT22;17711;54.018;9.300;2022-08-21T02:07:19;13.10;99.90
31046;DHT22;17711;54.018;9.300;2022-08-21T02:09:49;13.00;99.90
31046;DHT22;17711;54.018;9.300;2022-08-21T02:12:19;13.00;99.90
31046;DHT22;17711;54.018;9.300;2022-08-21T02:14:48;13.00;99.90
31046;DHT22;17711;54.018;9.300;2022-08-21T02:17:17;13.10;99.90
31046;DHT22;17711;54.018;9.300;2022-08-21T02:19:46;13.10;99.90
31046;DHT22;17711;54.018;9.300;2022-08-21T02:22:14;13.10;99.90
31046;DHT22;17711;54.018;9.300;2022-08-21T02:24:44;13.00;99.90
31046;DHT22;17711;54.018;9.300;2022-08-21T02:27:22;13.00;99.90
31046;DHT22;17711;54.018;9.300;2022-08-21T02:29:54;13.00;99.90
31046;DHT22;17711;54.018;9.300;2022-08-21T02:32:23;13.00;99.90
31046;DHT22;17711;54.018;9.300;2022-08-21T02:34:53;12.90;99.90
31046;DHT22;17711;54.018;9.300;2022-08-21T02:37:22;12.90;99.90
31046;DHT22;17711;54.018;9.300;2022-08-21T02:39:50;12.90;99.90
31046;DHT22;17711;54.018;9.300;2022-08-21T02:42:19;12.80;99.90
31046;DHT22;17711;54.018;9.300;2022-08-21T02:44:50;12.70;99.90
31046;DHT22;17711;54.018;9.300;2022-08-21T02:47:18;12.70;99.90
31046;DHT22;17711;54.018;9.300;2022-08-21T02:49:47;12.70;99.90
31046;DHT22;17711;54.018;9.300;2022-08-21T02:52:16;12.70;99.90
31046;DHT22;17711;54.018;9.300;2022-08-21T02:54:45;12.70;99.90
31046;DHT22;17711;54.018;9.300;2022-08-21T02:57:14;12.70;99.90
31046;DHT22;17711;54.018;9.300;2022-08-21T02:59:42;12.70;99.90
31046;DHT22;17711;54.018;9.300;2022-08-21T03:02:13;12.80;99.90
31046;DHT22;17711;54.018;9.300;2022-08-21T03:04:43;12.80;99.90
31046;DHT22;17711;54.018;9.300;2022-08-21T03:07:14;12.90;99.90
31046;DHT22;17711;54.018;9.300;2022-08-21T03:09:43;12.90;99.90
31046;DHT22;17711;54.018;9.300;2022-08-21T03:12:22;12.90;99.90
31046;DHT22;17711;54.018;9.300;2022-08-21T03:14:57;12.90;99.90
31046;DHT22;17711;54.018;9.300;2022-08-21T03:17:28;13.00;99.90
31046;DHT22;17711;54.018;9.300;2022-08-21T03:19:58;13.00;99.90
31046;DHT22;17711;54.018;9.300;2022-08-21T03:22:27;13.10;99.90
31046;DHT22;17711;54.018;9.300;2022-08-21T03:24:57;13.10;99.90
31046;DHT22;17711;54.018;9.300;2022-08-21T03:27:27;13.10;99.90
31046;DHT22;17711;54.018;9.300;2022-08-21T03:29:56;13.10;99.90
31046;DHT22;17711;54.018;9.300;2022-08-21T03:32:27;13.10;99.90
31046;DHT22;17711;54.018;9.300;2022-08-21T03:34:56;13.20;99.90
31046;DHT22;17711;54.018;9.300;2022-08-21T03:37:25;13.30;99.90
31046;DHT22;17711;54.018;9.300;2022-08-21T03:39:54;13.40;99.90
31046;DHT22;17711;54.018;9.300;2022-08-21T03:42:23;13.50;99.90
31046;DHT22;17711;54.018;9.300;2022-08-21T03:44:52;13.60;99.90
31046;DHT22;17711;54.018;9.300;2022-08-21T03:47:21;13.70;99.90
31046;DHT22;17711;54.018;9.300;2022-08-21T03:49:52;13.70;99.90
31046;DHT22;17711;54.018;9.300;2022-08-21T03:52:21;13.70;99.90
31046;DHT22;17711;54.018;9.300;2022-08-21T03:54:50;13.80;99.90
31046;DHT22;17711;54.018;9.300;2022-08-21T03:57:19;13.80;99.90
31046;DHT22;17711;54.018;9.300;2022-08-21T03:59:48;13.70;99.90
31046;DHT22;17711;54.018;9.300;2022-08-21T04:02:19;13.80;99.90
31046;DHT22;17711;54.018;9.300;2022-08-21T04:04:49;13.90;99.90
31046;DHT22;17711;54.018;9.300;2022-08-21T04:07:19;14.00;99.90
31046;DHT22;17711;54.018;9.300;2022-08-21T04:09:48;14.10;99.90
31046;DHT22;17711;54.018;9.300;2022-08-21T04:12:17;14.20;99.90
31046;DHT22;17711;54.018;9.300;2022-08-21T04:14:46;14.30;99.90
31046;DHT22;17711;54.018;9.300;2022-08-21T04:17:15;14.30;99.90
31046;DHT22;17711;54.018;9.300;2022-08-21T04:19:44;14.40;99.90
31046;DHT22;17711;54.018;9.300;2022-08-21T04:22:21;14.40;99.90
31046;DHT22;17711;54.018;9.300;2022-08-21T04:24:50;14.40;99.90
31046;DHT22;17711;54.018;9.300;2022-08-21T04:27:18;14.40;99.90
31046;DHT22;17711;54.018;9.300;2022-08-21T04:29:47;14.30;99.90
31046;DHT22;17711;54.018;9.300;2022-08-21T04:32:22;14.30;99.90
31046;DHT22;17711;54.018;9.300;2022-08-21T04:35:02;14.20;99.90
31046;DHT22;17711;54.018;9.300;2022-08-21T04:37:32;14.20;99.90
31046;DHT22;17711;54.018;9.300;2022-08-21T04:40:10;14.10;99.90
31046;DHT22;17711;54.018;9.300;2022-08-21T04:42:43;14.00;99.90
31046;DHT22;17711;54.018;9.300;2022-08-21T04:45:18;14.00;99.90
31046;DHT22;17711;54.018;9.300;2022-08-21T04:47:49;13.90;99.90
31046;DHT22;17711;54.018;9.300;2022-08-21T04:50:20;13.90;99.90
31046;DHT22;17711;54.018;9.300;2022-08-21T04:52:53;13.80;99.90
31046;DHT22;17711;54.018;9.300;2022-08-21T04:55:23;13.80;99.90
31046;DHT22;17711;54.018;9.300;2022-08-21T04:57:52;13.80;99.90
31046;DHT22;17711;54.018;9.300;2022-08-21T05:00:23;13.80;99.90
31046;DHT22;17711;54.018;9.300;2022-08-21T05:02:54;13.90;99.90
31046;DHT22;17711;54.018;9.300;2022-08-21T05:05:28;13.90;99.90
31046;DHT22;17711;54.018;9.300;2022-08-21T05:08:01;14.00;99.90
31046;DHT22;17711;54.018;9.300;2022-08-21T05:10:31;14.00;99.90
31046;DHT22;17711;54.018;9.300;2022-08-21T05:13:01;14.00;99.90
31046;DHT22;17711;54.018;9.300;2022-08-21T05:15:30;14.10;99.90
31046;DHT22;17711;54.018;9.300;2022-08-21T05:17:59;14.20;99.90
31046;DHT22;17711;54.018;9.300;2022-08-21T05:20:28;14.20;99.90
31046;DHT22;17711;54.018;9.300;2022-08-21T05:22:58;14.20;99.90
31046;DHT22;17711;54.018;9.300;2022-08-21T05:25:27;14.30;99.90
31046;DHT22;17711;54.018;9.300;2022-08-21T05:27:56;14.30;99.90
31046;DHT22;17711;54.018;9.300;2022-08-21T05:30:27;14.40;99.90
31046;DHT22;17711;54.018;9.300;2022-08-21T05:32:57;14.50;99.90
31046;DHT22;17711;54.018;9.300;2022-08-21T05:35:27;14.40;99.90
31046;DHT22;17711;54.018;9.300;2022-08-21T05:37:58;14.40;99.90
31046;DHT22;17711;54.018;9.300;2022-08-21T05:40:28;14.40;99.90
31046;DHT22;17711;54.018;9.300;2022-08-21T05:42:57;14.40;99.90
31046;DHT22;17711;54.018;9.300;2022-08-21T05:45:29;14.50;99.90
31046;DHT22;17711;54.018;9.300;2022-08-21T05:48:11;14.50;99.90
31046;DHT22;17711;54.018;9.300;2022-08-21T05:50:41;14.60;99.90
31046;DHT22;17711;54.018;9.300;2022-08-21T05:53:12;14.60;99.90
31046;DHT22;17711;54.018;9.300;2022-08-21T05:55:41;14.70;99.90
31046;DHT22;17711;54.018;9.300;2022-08-21T05:58:13;14.80;99.90
31046;DHT22;17711;54.018;9.300;2022-08-21T06:00:44;14.90;99.90
31046;DHT22;17711;54.018;9.300;2022-08-21T06:03:13;14.90;99.90
31046;DHT22;17711;54.018;9.300;2022-08-21T06:05:42;15.00;99.90
31046;DHT22;17711;54.018;9.300;2022-08-21T06:08:14;15.10;99.90
31046;DHT22;17711;54.018;9.300;2022-08-21T06:10:45;15.10;99.90
31046;DHT22;17711;54.018;9.300;2022-08-21T06:13:16;15.20;99.90
31046;DHT22;17711;54.018;9.300;2022-08-21T06:15:45;15.30;99.90
31046;DHT22;17711;54.018;9.300;2022-08-21T06:18:14;15.40;99.90
31046;DHT22;17711;54.018;9.300;2022-08-21T06:20:44;15.50;99.90
31046;DHT22;17711;54.018;9.300;2022-08-21T06:23:14;15.60;99.90
31046;DHT22;17711;54.018;9.300;2022-08-21T06:25:43;15.70;99.90
31046;DHT22;17711;54.018;9.300;2022-08-21T06:28:13;15.80;99.90
31046;DHT22;17711;54.018;9.300;2022-08-21T06:30:43;15.90;99.90
31046;DHT22;17711;54.018;9.300;2022-08-21T06:33:12;16.10;99.90
31046;DHT22;17711;54.018;9.300;2022-08-21T06:35:44;16.20;99.90
31046;DHT22;17711;54.018;9.300;2022-08-21T06:38:14;16.40;99.90
31046;DHT22;17711;54.018;9.300;2022-08-21T06:40:44;16.50;99.90
31046;DHT22;17711;54.018;9.300;2022-08-21T06:43:16;16.70;99.90
31046;DHT22;17711;54.018;9.300;2022-08-21T06:45:45;16.80;99.90
31046;DHT22;17711;54.018;9.300;2022-08-21T06:48:14;16.90;99.90
31046;DHT22;17711;54.018;9.300;2022-08-21T06:50:46;17.10;99.90
31046;DHT22;17711;54.018;9.300;2022-08-21T06:53:18;17.20;99.90
31046;DHT22;17711;54.018;9.300;2022-08-21T06:55:47;17.30;99.90
31046;DHT22;17711;54.018;9.300;2022-08-21T06:58:17;17.40;99.90
31046;DHT22;17711;54.018;9.300;2022-08-21T07:00:51;17.40;99.90
31046;DHT22;17711;54.018;9.300;2022-08-21T07:03:29;17.60;99.90
31046;DHT22;17711;54.018;9.300;2022-08-21T07:05:58;17.60;99.90
31046;DHT22;17711;54.018;9.300;2022-08-21T07:08:29;17.70;99.90
31046;DHT22;17711;54.018;9.300;2022-08-21T07:10:59;17.80;99.90
31046;DHT22;17711;54.018;9.300;2022-08-21T07:13:29;17.90;99.90
31046;DHT22;17711;54.018;9.300;2022-08-21T07:15:58;18.00;99.90
31046;DHT22;17711;54.018;9.300;2022-08-21T07:18:30;18.00;99.90
31046;DHT22;17711;54.018;9.300;2022-08-21T07:21:01;18.10;99.90
31046;DHT22;17711;54.018;9.300;2022-08-21T07:23:34;18.30;99.90
31046;DHT22;17711;54.018;9.300;2022-08-21T07:26:03;18.40;99.90
31046;DHT22;17711;54.018;9.300;2022-08-21T07:28:32;18.40;99.90
31046;DHT22;17711;54.018;9.300;2022-08-21T07:31:02;18.50;99.90
31046;DHT22;17711;54.018;9.300;2022-08-21T07:33:33;18.70;99.90
31046;DHT22;17711;54.018;9.300;2022-08-21T07:36:02;18.70;99.90
31046;DHT22;17711;54.018;9.300;2022-08-21T07:38:33;18.70;99.90
31046;DHT22;17711;54.018;9.300;2022-08-21T07:41:02;18.80;99.90
31046;DHT22;17711;54.018;9.300;2022-08-21T07:43:37;19.00;99.90
31046;DHT22;17711;54.018;9.300;2022-08-21T07:46:13;19.10;99.90
31046;DHT22;17711;54.018;9.300;2022-08-21T07:48:46;19.20;99.90
31046;DHT22;17711;54.018;9.300;2022-08-21T07:51:16;19.40;99.90
31046;DHT22;17711;54.018;9.300;2022-08-21T07:53:50;19.60;99.90
31046;DHT22;17711;54.018;9.300;2022-08-21T07:56:21;19.70;99.90
31046;DHT22;17711;54.018;9.300;2022-08-21T07:58:50;19.90;99.90
31046;DHT22;17711;54.018;9.300;2022-08-21T08:01:19;20.30;99.90
31046;DHT22;17711;54.018;9.300;2022-08-21T08:03:50;21.40;99.90
31046;DHT22;17711;54.018;9.300;2022-08-21T08:06:19;22.20;99.90
31046;DHT22;17711;54.018;9.300;2022-08-21T08:08:50;22.50;99.90
31046;DHT22;17711;54.018;9.300;2022-08-21T08:11:19;22.70;99.90
31046;DHT22;17711;54.018;9.300;2022-08-21T08:13:51;22.90;99.90
31046;DHT22;17711;54.018;9.300;2022-08-21T08:16:20;23.40;99.90
31046;DHT22;17711;54.018;9.300;2022-08-21T08:18:49;24.40;99.90
31046;DHT22;17711;54.018;9.300;2022-08-21T08:21:19;25.90;98.30
31046;DHT22;17711;54.018;9.300;2022-08-21T08:23:50;27.30;91.00
31046;DHT22;17711;54.018;9.300;2022-08-21T08:26:19;28.40;77.00
31046;DHT22;17711;54.018;9.300;2022-08-21T08:28:48;29.60;82.00
31046;DHT22;17711;54.018;9.300;2022-08-21T08:31:17;30.70;68.40
31046;DHT22;17711;54.018;9.300;2022-08-21T08:33:47;31.00;55.10
31046;DHT22;17711;54.018;9.300;2022-08-21T08:36:17;31.70;55.90
31046;DHT22;17711;54.018;9.300;2022-08-21T08:38:47;32.40;49.10
31046;DHT22;17711;54.018;9.300;2022-08-21T08:41:19;32.40;49.60
31046;DHT22;17711;54.018;9.300;2022-08-21T08:44:01;33.00;50.60
31046;DHT22;17711;54.018;9.300;2022-08-21T08:46:34;33.40;46.40
31046;DHT22;17711;54.018;9.300;2022-08-21T08:49:09;33.50;43.20
31046;DHT22;17711;54.018;9.300;2022-08-21T08:51:45;34.00;45.50
31046;DHT22;17711;54.018;9.300;2022-08-21T08:54:25;34.10;42.30
31046;DHT22;17711;54.018;9.300;2022-08-21T08:57:01;34.80;42.00
31046;DHT22;17711;54.018;9.300;2022-08-21T08:59:37;35.40;41.20
31046;DHT22;17711;54.018;9.300;2022-08-21T09:02:12;35.80;36.60
31046;DHT22;17711;54.018;9.300;2022-08-21T09:04:43;35.90;36.80
31046;DHT22;17711;54.018;9.300;2022-08-21T09:07:28;36.10;34.90
31046;DHT22;17711;54.018;9.300;2022-08-21T09:10:12;36.20;34.30
31046;DHT22;17711;54.018;9.300;2022-08-21T09:12:49;36.30;33.60
31046;DHT22;17711;54.018;9.300;2022-08-21T09:15:25;36.60;34.50
31046;DHT22;17711;54.018;9.300;2022-08-21T09:18:25;36.90;32.60
31046;DHT22;17711;54.018;9.300;2022-08-21T09:21:07;37.70;32.70
31046;DHT22;17711;54.018;9.300;2022-08-21T09:23:47;37.70;33.70
31046;DHT22;17711;54.018;9.300;2022-08-21T09:26:20;38.00;30.70
31046;DHT22;17711;54.018;9.300;2022-08-21T09:28:53;38.00;34.20
31046;DHT22;17711;54.018;9.300;2022-08-21T09:31:25;38.50;35.80
31046;DHT22;17711;54.018;9.300;2022-08-21T09:33:58;39.00;30.80
31046;DHT22;17711;54.018;9.300;2022-08-21T09:36:35;39.10;28.80
31046;DHT22;17711;54.018;9.300;2022-08-21T09:39:06;39.30;30.30
31046;DHT22;17711;54.018;9.300;2022-08-21T09:41:36;38.90;28.60
31046;DHT22;17711;54.018;9.300;2022-08-21T09:44:07;38.70;28.80
31046;DHT22;17711;54.018;9.300;2022-08-21T09:46:37;38.60;29.90
31046;DHT22;17711;54.018;9.300;2022-08-21T09:49:06;38.00;26.30
31046;DHT22;17711;54.018;9.300;2022-08-21T09:51:50;37.90;32.20
31046;DHT22;17711;54.018;9.300;2022-08-21T09:54:24;38.80;28.60
31046;DHT22;17711;54.018;9.300;2022-08-21T09:56:57;39.30;30.00
31046;DHT22;17711;54.018;9.300;2022-08-21T09:59:46;39.50;29.70
31046;DHT22;17711;54.018;9.300;2022-08-21T10:02:24;40.00;30.60
31046;DHT22;17711;54.018;9.300;2022-08-21T10:04:57;40.40;28.90
31046;DHT22;17711;54.018;9.300;2022-08-21T10:07:26;39.80;26.30
31046;DHT22;17711;54.018;9.300;2022-08-21T10:10:01;39.40;26.30
31046;DHT22;17711;54.018;9.300;2022-08-21T10:12:42;39.70;27.40
31046;DHT22;17711;54.018;9.300;2022-08-21T10:15:20;39.90;29.60
31046;DHT22;17711;54.018;9.300;2022-08-21T10:17:56;39.90;25.70
31046;DHT22;17711;54.018;9.300;2022-08-21T10:20:37;39.80;28.40
31046;DHT22;17711;54.018;9.300;2022-08-21T10:23:21;40.50;29.20
31046;DHT22;17711;54.018;9.300;2022-08-21T10:25:57;40.60;26.90
31046;DHT22;17711;54.018;9.300;2022-08-21T10:28:46;40.50;25.00
31046;DHT22;17711;54.018;9.300;2022-08-21T10:31:23;40.00;27.60
31046;DHT22;17711;54.018;9.300;2022-08-21T10:34:03;40.70;30.40
31046;DHT22;17711;54.018;9.300;2022-08-21T10:36:39;41.30;27.00
31046;DHT22;17711;54.018;9.300;2022-08-21T10:39:20;40.90;24.90
31046;DHT22;17711;54.018;9.300;2022-08-21T10:42:21;40.90;29.30
31046;DHT22;17711;54.018;9.300;2022-08-21T10:45:11;40.70;25.90
31046;DHT22;17711;54.018;9.300;2022-08-21T10:47:48;41.10;26.00
31046;DHT22;17711;54.018;9.300;2022-08-21T10:50:30;41.40;26.20
31046;DHT22;17711;54.018;9.300;2022-08-21T10:53:10;41.30;26.30
31046;DHT22;17711;54.018;9.300;2022-08-21T10:55:46;41.30;26.10
31046;DHT22;17711;54.018;9.300;2022-08-21T10:58:21;40.80;25.10
31046;DHT22;17711;54.018;9.300;2022-08-21T11:00:56;40.90;27.50
31046;DHT22;17711;54.018;9.300;2022-08-21T11:03:33;41.30;26.70
31046;DHT22;17711;54.018;9.300;2022-08-21T11:06:07;41.60;28.00
31046;DHT22;17711;54.018;9.300;2022-08-21T11:08:41;41.40;25.80
31046;DHT22;17711;54.018;9.300;2022-08-21T11:11:17;40.60;25.10
31046;DHT22;17711;54.018;9.300;2022-08-21T11:13:51;40.40;26.90
31046;DHT22;17711;54.018;9.300;2022-08-21T11:16:27;40.80;30.00
31046;DHT22;17711;54.018;9.300;2022-08-21T11:19:04;41.60;26.20
31046;DHT22;17711;54.018;9.300;2022-08-21T11:21:37;41.80;25.30
31046;DHT22;17711;54.018;9.300;2022-08-21T11:24:24;41.30;25.20
31046;DHT22;17711;54.018;9.300;2022-08-21T11:27:01;41.60;29.00
31046;DHT22;17711;54.018;9.300;2022-08-21T11:29:34;41.90;26.10
31046;DHT22;17711;54.018;9.300;2022-08-21T11:32:18;42.10;27.10
31046;DHT22;17711;54.018;9.300;2022-08-21T11:34:58;42.60;25.50
31046;DHT22;17711;54.018;9.300;2022-08-21T11:37:50;42.50;23.80
31046;DHT22;17711;54.018;9.300;2022-08-21T11:40:37;42.00;22.50
31046;DHT22;17711;54.018;9.300;2022-08-21T11:43:16;41.70;24.10
31046;DHT22;17711;54.018;9.300;2022-08-21T11:45:51;41.60;23.90
31046;DHT22;17711;54.018;9.300;2022-08-21T11:48:32;41.40;27.50
31046;DHT22;17711;54.018;9.300;2022-08-21T11:51:09;41.40;25.70
31046;DHT22;17711;54.018;9.300;2022-08-21T11:53:45;41.40;23.80
31046;DHT22;17711;54.018;9.300;2022-08-21T11:56:23;40.50;24.40
31046;DHT22;17711;54.018;9.300;2022-08-21T11:58:58;40.30;27.00
31046;DHT22;17711;54.018;9.300;2022-08-21T12:01:33;41.10;25.60
31046;DHT22;17711;54.018;9.300;2022-08-21T12:04:10;41.70;25.50
31046;DHT22;17711;54.018;9.300;2022-08-21T12:06:47;41.60;25.50
31046;DHT22;17711;54.018;9.300;2022-08-21T12:09:32;41.00;26.00
31046;DHT22;17711;54.018;9.300;2022-08-21T12:12:04;41.10;26.70
31046;DHT22;17711;54.018;9.300;2022-08-21T12:14:39;41.50;24.70
31046;DHT22;17711;54.018;9.300;2022-08-21T12:17:18;40.80;25.30
31046;DHT22;17711;54.018;9.300;2022-08-21T12:19:58;40.80;25.70
31046;DHT22;17711;54.018;9.300;2022-08-21T12:22:39;41.30;24.70
31046;DHT22;17711;54.018;9.300;2022-08-21T12:25:11;41.60;26.90
31046;DHT22;17711;54.018;9.300;2022-08-21T12:27:51;40.90;22.20
31046;DHT22;17711;54.018;9.300;2022-08-21T12:30:32;40.60;25.30
31046;DHT22;17711;54.018;9.300;2022-08-21T12:33:03;41.20;26.50
31046;DHT22;17711;54.018;9.300;2022-08-21T12:35:37;41.40;24.30
31046;DHT22;17711;54.018;9.300;2022-08-21T12:38:14;41.60;28.60
31046;DHT22;17711;54.018;9.300;2022-08-21T12:40:50;41.80;27.60
31046;DHT22;17711;54.018;9.300;2022-08-21T12:43:25;41.60;24.80
31046;DHT22;17711;54.018;9.300;2022-08-21T12:45:56;41.30;24.90
31046;DHT22;17711;54.018;9.300;2022-08-21T12:48:31;41.50;27.40
31046;DHT22;17711;54.018;9.300;2022-08-21T12:51:09;41.90;26.10
31046;DHT22;17711;54.018;9.300;2022-08-21T12:53:45;42.40;27.10
31046;DHT22;17711;54.018;9.300;2022-08-21T12:56:18;42.10;25.60
31046;DHT22;17711;54.018;9.300;2022-08-21T12:58:50;40.60;26.70
31046;DHT22;17711;54.018;9.300;2022-08-21T13:01:23;39.50;26.40
31046;DHT22;17711;54.018;9.300;2022-08-21T13:03:55;39.50;27.00
31046;DHT22;17711;54.018;9.300;2022-08-21T13:06:37;39.40;25.80
31046;DHT22;17711;54.018;9.300;2022-08-21T13:09:11;38.70;25.90
31046;DHT22;17711;54.018;9.300;2022-08-21T13:11:43;38.10;27.30
31046;DHT22;17711;54.018;9.300;2022-08-21T13:14:23;38.70;28.40
31046;DHT22;17711;54.018;9.300;2022-08-21T13:16:54;39.10;27.80
31046;DHT22;17711;54.018;9.300;2022-08-21T13:19:25;39.60;29.20
31046;DHT22;17711;54.018;9.300;2022-08-21T13:21:56;38.80;28.40
31046;DHT22;17711;54.018;9.300;2022-08-21T13:24:29;37.40;28.70
31046;DHT22;17711;54.018;9.300;2022-08-21T13:27:22;37.10;31.20
31046;DHT22;17711;54.018;9.300;2022-08-21T13:30:05;38.00;30.00
31046;DHT22;17711;54.018;9.300;2022-08-21T13:32:37;39.10;30.00
31046;DHT22;17711;54.018;9.300;2022-08-21T13:35:10;39.70;30.00
31046;DHT22;17711;54.018;9.300;2022-08-21T13:37:41;40.30;28.90
31046;DHT22;17711;54.018;9.300;2022-08-21T13:40:16;40.40;27.70
31046;DHT22;17711;54.018;9.300;2022-08-21T13:42:47;39.90;29.40
31046;DHT22;17711;54.018;9.300;2022-08-21T13:45:23;39.00;30.40
31046;DHT22;17711;54.018;9.300;2022-08-21T13:47:53;39.00;31.20
31046;DHT22;17711;54.018;9.300;2022-08-21T13:50:24;39.30;29.40
31046;DHT22;17711;54.018;9.300;2022-08-21T13:52:57;39.10;28.50
31046;DHT22;17711;54.018;9.300;2022-08-21T13:55:37;38.10;31.20
31046;DHT22;17711;54.018;9.300;2022-08-21T13:58:08;37.30;33.00
31046;DHT22;17711;54.018;9.300;2022-08-21T14:00:45;36.10;32.10
31046;DHT22;17711;54.018;9.300;2022-08-21T14:03:26;35.00;34.50
31046;DHT22;17711;54.018;9.300;2022-08-21T14:05:56;34.10;37.10
31046;DHT22;17711;54.018;9.300;2022-08-21T14:08:31;33.40;39.20
31046;DHT22;17711;54.018;9.300;2022-08-21T14:11:05;32.70;41.30
31046;DHT22;17711;54.018;9.300;2022-08-21T14:13:38;32.20;41.10
31046;DHT22;17711;54.018;9.300;2022-08-21T14:16:15;31.70;44.80
31046;DHT22;17711;54.018;9.300;2022-08-21T14:18:50;31.30;44.10
31046;DHT22;17711;54.018;9.300;2022-08-21T14:21:31;31.00;47.40
31046;DHT22;17711;54.018;9.300;2022-08-21T14:24:07;30.70;46.80
31046;DHT22;17711;54.018;9.300;2022-08-21T14:26:47;30.50;50.40
31046;DHT22;17711;54.018;9.300;2022-08-21T14:29:19;30.20;51.80
31046;DHT22;17711;54.018;9.300;2022-08-21T14:31:51;30.00;55.20
31046;DHT22;17711;54.018;9.300;2022-08-21T14:34:21;30.00;54.70
31046;DHT22;17711;54.018;9.300;2022-08-21T14:36:52;29.80;57.20
31046;DHT22;17711;54.018;9.300;2022-08-21T14:39:21;29.60;56.10
31046;DHT22;17711;54.018;9.300;2022-08-21T14:41:52;29.40;57.00
31046;DHT22;17711;54.018;9.300;2022-08-21T14:44:22;29.50;59.00
31046;DHT22;17711;54.018;9.300;2022-08-21T14:46:51;30.30;60.60
31046;DHT22;17711;54.018;9.300;2022-08-21T14:49:28;30.80;53.90
31046;DHT22;17711;54.018;9.300;2022-08-21T14:51:58;31.50;55.70
31046;DHT22;17711;54.018;9.300;2022-08-21T14:54:28;32.00;51.10
31046;DHT22;17711;54.018;9.300;2022-08-21T14:57:03;31.70;50.10
31046;DHT22;17711;54.018;9.300;2022-08-21T14:59:34;31.20;52.00
31046;DHT22;17711;54.018;9.300;2022-08-21T15:02:04;30.80;50.80
31046;DHT22;17711;54.018;9.300;2022-08-21T15:04:34;30.40;53.10
31046;DHT22;17711;54.018;9.300;2022-08-21T15:07:04;30.20;56.50
31046;DHT22;17711;54.018;9.300;2022-08-21T15:09:33;30.00;55.70
31046;DHT22;17711;54.018;9.300;2022-08-21T15:12:04;29.80;54.70
31046;DHT22;17711;54.018;9.300;2022-08-21T15:14:36;29.50;54.50
31046;DHT22;17711;54.018;9.300;2022-08-21T15:17:08;29.30;57.10
31046;DHT22;17711;54.018;9.300;2022-08-21T15:19:38;29.20;62.10
31046;DHT22;17711;54.018;9.300;2022-08-21T15:22:08;29.20;59.10
31046;DHT22;17711;54.018;9.300;2022-08-21T15:24:45;29.20;59.50
31046;DHT22;17711;54.018;9.300;2022-08-21T15:27:16;29.30;60.30
31046;DHT22;17711;54.018;9.300;2022-08-21T15:29:47;29.50;60.10
31046;DHT22;17711;54.018;9.300;2022-08-21T15:32:19;29.90;58.80
31046;DHT22;17711;54.018;9.300;2022-08-21T15:34:50;30.00;58.10
31046;DHT22;17711;54.018;9.300;2022-08-21T15:37:20;29.90;60.20
31046;DHT22;17711;54.018;9.300;2022-08-21T15:39:50;29.70;58.80
31046;DHT22;17711;54.018;9.300;2022-08-21T15:42:23;29.40;61.10
31046;DHT22;17711;54.018;9.300;2022-08-21T15:44:54;29.20;60.40
31046;DHT22;17711;54.018;9.300;2022-08-21T15:47:28;28.90;61.30
31046;DHT22;17711;54.018;9.300;2022-08-21T15:49:58;28.60;63.80
31046;DHT22;17711;54.018;9.300;2022-08-21T15:52:27;28.40;63.70
31046;DHT22;17711;54.018;9.300;2022-08-21T15:54:57;28.20;62.30
31046;DHT22;17711;54.018;9.300;2022-08-21T15:57:27;28.00;65.20
31046;DHT22;17711;54.018;9.300;2022-08-21T15:59:59;27.80;65.40
31046;DHT22;17711;54.018;9.300;2022-08-21T16:02:38;27.60;64.50
31046;DHT22;17711;54.018;9.300;2022-08-21T16:05:08;27.40;65.40